sensor_id;sensor_type;location;lat;lon;timestamp;pressure;altitude;pressure_sealevel;temperature;humidity
31005;BME280;17676;52.254;4.490;2023-09-19T00:00:06;99751.97;;;17.17;100.00
31005;BME280;17676;52.254;4.490;2023-09-19T00:02:32;99759.06;;;17.18;100.00
31005;BME280;17676;52.254;4.490;2023-09-19T00:04:58;99724.06;;;17.15;100.00
31005;BME280;17676;52.254;4.490;2023-09-19T00:07:24;99739.34;;;17.31;100.00
31005;BME280;17676;52.254;4.490;2023-09-19T00:09:50;99734.41;;;17.38;100.00
31005;BME280;17676;52.254;4.490;2023-09-19T00:12:15;99741.00;;;17.32;100.00
31005;BME280;17676;52.254;4.490;2023-09-19T00:14:41;99780.38;;;17.26;100.00
31005;BME280;17676;52.254;4.490;2023-09-19T00:17:06;99837.84;;;17.21;100.00
31005;BME280;17676;52.254;4.490;2023-09-19T00:19:36;99889.50;;;17.12;100.00
31005;BME280;17676;52.254;4.490;2023-09-19T00:22:03;99944.50;;;17.16;100.00
31005;BME280;17676;52.254;4.490;2023-09-19T00:24:29;99998.63;;;17.19;100.00
31005;BME280;17676;52.254;4.490;2023-09-19T00:26:56;100048.41;;;17.26;100.00
31005;BME280;17676;52.254;4.490;2023-09-19T00:29:22;100076.88;;;17.20;100.00
31005;BME280;17676;52.254;4.490;2023-09-19T00:31:48;100078.50;;;17.21;100.00
31005;BME280;17676;52.254;4.490;2023-09-19T00:34:15;100106.13;;;17.24;100.00
31005;BME280;17676;52.254;4.490;2023-09-19T00:36:42;100121.41;;;17.15;100.00
31005;BME280;17676;52.254;4.490;2023-09-19T00:39:08;100119.00;;;17.24;100.00
31005;BME280;17676;52.254;4.490;2023-09-19T00:41:35;100108.59;;;17.26;100.00
31005;BME280;17676;52.254;4.490;2023-09-19T00:44:02;100093.84;;;17.32;100.00
31005;BME280;17676;52.254;4.490;2023-09-19T00:46:30;100085.66;;;17.32;100.00
31005;BME280;17676;52.254;4.490;2023-09-19T00:48:56;100086.44;;;17.32;100.00
31005;BME280;17676;52.254;4.490;2023-09-19T00:51:22;100076.88;;;17.30;100.00
31005;BME280;17676;52.254;4.490;2023-09-19T00:53:51;100080.19;;;17.32;100.00
31005;BME280;17676;52.254;4.490;2023-09-19T00:56:18;100085.13;;;17.40;100.00
31005;BME280;17676;52.254;4.490;2023-09-19T00:58:44;100084.81;;;17.36;100.00
31005;BME280;17676;52.254;4.490;2023-09-19T01:01:12;100088.91;;;17.29;100.00
31005;BME280;17676;52.254;4.490;2023-09-19T01:03:40;100102.59;;;17.39;100.00
31005;BME280;17676;52.254;4.490;2023-09-19T01:06:06;100079.59;;;17.35;100.00
31005;BME280;17676;52.254;4.490;2023-09-19T01:08:33;100091.66;;;17.39;100.00
31005;BME280;17676;52.254;4.490;2023-09-19T01:11:35;100082.38;;;17.40;100.00
31005;BME280;17676;52.254;4.490;2023-09-19T01:19:56;100076.66;;;17.56;100.00
31005;BME280;17676;52.254;4.490;2023-09-19T01:22:37;100058.81;;;17.34;100.00
31005;BME280;17676;52.254;4.490;2023-09-19T01:25:35;100067.88;;;17.34;100.00
31005;BME280;17676;52.254;4.490;2023-09-19T01:28:20;100052.81;;;17.32;100.00
31005;BME280;17676;52.254;4.490;2023-09-19T01:30:52;100046.50;;;17.31;100.00
31005;BME280;17676;52.254;4.490;2023-09-19T01:33:23;100053.09;;;17.35;100.00
31005;BME280;17676;52.254;4.490;2023-09-19T01:35:48;100043.53;;;17.43;100.00
31005;BME280;17676;52.254;4.490;2023-09-19T01:38:14;100049.56;;;17.45;100.00
31005;BME280;17676;52.254;4.490;2023-09-19T01:40:50;100046.84;;;17.45;100.00
31005;BME280;17676;52.254;4.490;2023-09-19T01:43:25;100041.38;;;17.45;100.00
31005;BME280;17676;52.254;4.490;2023-09-19T01:46:16;100016.75;;;17.50;100.00
31005;BME280;17676;52.254;4.490;2023-09-19T01:49:15;99999.78;;;17.53;100.00
31005;BME280;17676;52.254;4.490;2023-09-19T01:51:51;99970.75;;;17.47;100.00
31005;BME280;17676;52.254;4.490;2023-09-19T01:54:36;99935.19;;;17.32;100.00
31005;BME280;17676;52.254;4.490;2023-09-19T01:57:28;99936.28;;;17.36;100.00
31005;BME280;17676;52.254;4.490;2023-09-19T02:00:00;99927.25;;;17.15;100.00
31005;BME280;17676;52.254;4.490;2023-09-19T02:02:35;99923.69;;;17.10;100.00
31005;BME280;17676;52.254;4.490;2023-09-19T02:05:02;99910.00;;;17.15;100.00
31005;BME280;17676;52.254;4.490;2023-09-19T02:07:29;99921.25;;;17.13;100.00
31005;BME280;17676;52.254;4.490;2023-09-19T02:09:59;99925.59;;;17.04;100.00
31005;BME280;17676;52.254;4.490;2023-09-19T02:12:30;99969.09;;;17.21;100.00
31005;BME280;17676;52.254;4.490;2023-09-19T02:14:56;99963.38;;;17.22;100.00
31005;BME280;17676;52.254;4.490;2023-09-19T02:17:22;99960.06;;;17.05;100.00
31005;BME280;17676;52.254;4.490;2023-09-19T02:19:52;99940.38;;;16.98;100.00
31005;BME280;17676;52.254;4.490;2023-09-19T02:22:18;99945.00;;;17.03;100.00
31005;BME280;17676;52.254;4.490;2023-09-19T02:24:43;99924.81;;;17.04;100.00
31005;BME280;17676;52.254;4.490;2023-09-19T02:27:09;99934.09;;;17.23;100.00
31005;BME280;17676;52.254;4.490;2023-09-19T02:29:38;99941.47;;;17.22;100.00
31005;BME280;17676;52.254;4.490;2023-09-19T02:32:03;99885.41;;;17.10;100.00
31005;BME280;17676;52.254;4.490;2023-09-19T02:34:29;99889.25;;;17.09;100.00
31005;BME280;17676;52.254;4.490;2023-09-19T02:36:54;99866.28;;;16.95;100.00
31005;BME280;17676;52.254;4.490;2023-09-19T02:39:21;99875.03;;;17.07;100.00
31005;BME280;17676;52.254;4.490;2023-09-19T02:41:46;99871.19;;;17.23;100.00
31005;BME280;17676;52.254;4.490;2023-09-19T02:44:12;99870.09;;;17.14;100.00
31005;BME280;17676;52.254;4.490;2023-09-19T02:46:38;99870.66;;;17.11;100.00
31005;BME280;17676;52.254;4.490;2023-09-19T02:49:03;99866.28;;;17.10;100.00
31005;BME280;17676;52.254;4.490;2023-09-19T02:51:32;99881.03;;;17.19;100.00
31005;BME280;17676;52.254;4.490;2023-09-19T02:54:01;99888.69;;;17.22;100.00
31005;BME280;17676;52.254;4.490;2023-09-19T02:56:28;99898.56;;;17.28;100.00
31005;BME280;17676;52.254;4.490;2023-09-19T02:58:55;99889.78;;;17.26;100.00
31005;BME280;17676;52.254;4.490;2023-09-19T03:01:20;99874.47;;;17.30;100.00
31005;BME280;17676;52.254;4.490;2023-09-19T03:03:46;99893.06;;;17.28;100.00
31005;BME280;17676;52.254;4.490;2023-09-19T03:06:12;99910.00;;;17.35;100.00
31005;BME280;17676;52.254;4.490;2023-09-19T03:08:38;99885.66;;;17.28;100.00
31005;BME280;17676;52.254;4.490;2023-09-19T03:11:05;99883.22;;;17.22;100.00
31005;BME280;17676;52.254;4.490;2023-09-19T03:13:32;99896.38;;;17.20;100.00
31005;BME280;17676;52.254;4.490;2023-09-19T03:15:57;99883.25;;;17.12;100.00
31005;BME280;17676;52.254;4.490;2023-09-19T03:18:26;99891.97;;;16.99;100.00
31005;BME280;17676;52.254;4.490;2023-09-19T03:20:55;99891.19;;;16.93;100.00
31005;BME280;17676;52.254;4.490;2023-09-19T03:23:21;99882.41;;;17.06;100.00
31005;BME280;17676;52.254;4.490;2023-09-19T03:25:47;99900.72;;;17.21;100.00
31005;BME280;17676;52.254;4.490;2023-09-19T03:28:13;99903.47;;;17.11;100.00
31005;BME280;17676;52.254;4.490;2023-09-19T03:30:39;99913.88;;;17.04;100.00
31005;BME280;17676;52.254;4.490;2023-09-19T03:33:05;99928.63;;;17.13;100.00
31005;BME280;17676;52.254;4.490;2023-09-19T03:35:31;99928.91;;;17.06;100.00
31005;BME280;17676;52.254;4.490;2023-09-19T03:37:56;99940.09;;;17.10;100.00
31005;BME280;17676;52.254;4.490;2023-09-19T03:40:22;99949.41;;;17.09;100.00
31005;BME280;17676;52.254;4.490;2023-09-19T03:42:48;99955.44;;;17.16;100.00
31005;BME280;17676;52.254;4.490;2023-09-19T03:45:14;99946.41;;;17.10;100.00
31005;BME280;17676;52.254;4.490;2023-09-19T03:47:40;99961.44;;;17.13;100.00
31005;BME280;17676;52.254;4.490;2023-09-19T03:50:06;99944.22;;;17.07;100.00
31005;BME280;17676;52.254;4.490;2023-09-19T03:52:41;99962.81;;;17.20;100.00
31005;BME280;17676;52.254;4.490;2023-09-19T03:55:06;99972.13;;;17.14;100.00
31005;BME280;17676;52.254;4.490;2023-09-19T03:57:32;99971.84;;;17.16;100.00
31005;BME280;17676;52.254;4.490;2023-09-19T03:59:57;99988.53;;;17.14;100.00
31005;BME280;17676;52.254;4.490;2023-09-19T04:02:23;100007.38;;;17.11;100.00
31005;BME280;17676;52.254;4.490;2023-09-19T04:04:50;100016.41;;;17.06;100.00
31005;BME280;17676;52.254;4.490;2023-09-19T04:07:16;100000.53;;;17.03;100.00
31005;BME280;17676;52.254;4.490;2023-09-19T04:09:41;100007.09;;;17.07;100.00
31005;BME280;17676;52.254;4.490;2023-09-19T04:12:07;100011.75;;;17.12;100.00
31005;BME280;17676;52.254;4.490;2023-09-19T04:14:36;100003.00;;;17.15;100.00
31005;BME280;17676;52.254;4.490;2023-09-19T04:17:02;100002.44;;;16.98;100.00
31005;BME280;17676;52.254;4.490;2023-09-19T04:19:28;100009.78;;;16.92;100.00
31005;BME280;17676;52.254;4.490;2023-09-19T04:21:53;100023.19;;;16.99;100.00
31005;BME280;17676;52.254;4.490;2023-09-19T04:24:18;100007.31;;;16.91;100.00
31005;BME280;17676;52.254;4.490;2023-09-19T04:26:47;99985.44;;;16.81;100.00
31005;BME280;17676;52.254;4.490;2023-09-19T04:29:13;99973.41;;;16.77;100.00
31005;BME280;17676;52.254;4.490;2023-09-19T04:31:39;100002.69;;;16.81;100.00
31005;BME280;17676;52.254;4.490;2023-09-19T04:34:05;99977.19;;;16.56;100.00
31005;BME280;17676;52.254;4.490;2023-09-19T04:36:31;99946.97;;;16.21;100.00
31005;BME280;17676;52.254;4.490;2023-09-19T04:38:56;99888.25;;;16.13;100.00
31005;BME280;17676;52.254;4.490;2023-09-19T04:41:22;99869.41;;;16.22;100.00
31005;BME280;17676;52.254;4.490;2023-09-19T04:43:48;99851.41;;;16.21;100.00
31005;BME280;17676;52.254;4.490;2023-09-19T04:46:16;99848.72;;;16.31;100.00
31005;BME280;17676;52.254;4.490;2023-09-19T04:48:43;99861.84;;;16.39;100.00
31005;BME280;17676;52.254;4.490;2023-09-19T04:51:08;99858.59;;;16.47;100.00
31005;BME280;17676;52.254;4.490;2023-09-19T04:53:34;99863.25;;;16.56;100.00
31005;BME280;17676;52.254;4.490;2023-09-19T04:55:59;99840.56;;;16.46;100.00
31005;BME280;17676;52.254;4.490;2023-09-19T04:58:24;99851.50;;;16.51;100.00
31005;BME280;17676;52.254;4.490;2023-09-19T05:00:50;99856.44;;;16.59;100.00
31005;BME280;17676;52.254;4.490;2023-09-19T05:03:16;99852.06;;;16.63;100.00
31005;BME280;17676;52.254;4.490;2023-09-19T05:05:42;99846.63;;;16.63;100.00
31005;BME280;17676;52.254;4.490;2023-09-19T05:08:08;99860.81;;;16.75;100.00
31005;BME280;17676;52.254;4.490;2023-09-19T05:10:35;99861.91;;;16.89;100.00
31005;BME280;17676;52.254;4.490;2023-09-19T05:13:04;99863.81;;;16.83;100.00
31005;BME280;17676;52.254;4.490;2023-09-19T05:15:30;99864.38;;;16.90;100.00
31005;BME280;17676;52.254;4.490;2023-09-19T05:17:56;99864.09;;;16.97;100.00
31005;BME280;17676;52.254;4.490;2023-09-19T05:20:22;99844.16;;;16.91;100.00
31005;BME280;17676;52.254;4.490;2023-09-19T05:22:58;99869.84;;;17.00;100.00
31005;BME280;17676;52.254;4.490;2023-09-19T05:25:28;99865.75;;;16.88;100.00
31005;BME280;17676;52.254;4.490;2023-09-19T05:27:56;99858.63;;;16.87;100.00
31005;BME280;17676;52.254;4.490;2023-09-19T05:30:23;99867.66;;;16.82;100.00
31005;BME280;17676;52.254;4.490;2023-09-19T05:32:48;99882.41;;;16.86;100.00
31005;BME280;17676;52.254;4.490;2023-09-19T05:35:14;99874.47;;;16.90;100.00
31005;BME280;17676;52.254;4.490;2023-09-19T05:37:39;99898.53;;;17.03;100.00
31005;BME280;17676;52.254;4.490;2023-09-19T05:40:05;99908.66;;;17.02;100.00
31005;BME280;17676;52.254;4.490;2023-09-19T05:42:38;99907.31;;;17.00;100.00
31005;BME280;17676;52.254;4.490;2023-09-19T05:45:05;99918.75;;;16.87;100.00
31005;BME280;17676;52.254;4.490;2023-09-19T05:47:32;99924.50;;;16.95;100.00
31005;BME280;17676;52.254;4.490;2023-09-19T05:49:57;99920.72;;;17.01;100.00
31005;BME280;17676;52.254;4.490;2023-09-19T05:52:22;99919.03;;;17.00;100.00
31005;BME280;17676;52.254;4.490;2023-09-19T05:54:48;99913.84;;;16.99;100.00
31005;BME280;17676;52.254;4.490;2023-09-19T05:57:14;99924.00;;;17.13;100.00
31005;BME280;17676;52.254;4.490;2023-09-19T05:59:40;99912.47;;;17.16;100.00
31005;BME280;17676;52.254;4.490;2023-09-19T06:02:08;99916.59;;;17.24;100.00
31005;BME280;17676;52.254;4.490;2023-09-19T06:04:34;99914.94;;;17.23;100.00
31005;BME280;17676;52.254;4.490;2023-09-19T06:06:59;99918.22;;;17.30;100.00
31005;BME280;17676;52.254;4.490;2023-09-19T06:09:25;99921.22;;;17.28;100.00
31005;BME280;17676;52.254;4.490;2023-09-19T06:11:53;99912.19;;;17.23;100.00
31005;BME280;17676;52.254;4.490;2023-09-19T06:14:19;99907.28;;;17.40;100.00
31005;BME280;17676;52.254;4.490;2023-09-19T06:16:44;99916.56;;;17.39;100.00
31005;BME280;17676;52.254;4.490;2023-09-19T06:19:10;99909.47;;;17.33;100.00
31005;BME280;17676;52.254;4.490;2023-09-19T06:21:36;99912.19;;;17.38;100.00
31005;BME280;17676;52.254;4.490;2023-09-19T06:24:02;99920.94;;;17.35;100.00
31005;BME280;17676;52.254;4.490;2023-09-19T06:26:28;99917.66;;;17.38;100.00
31005;BME280;17676;52.254;4.490;2023-09-19T06:28:54;99919.91;;;17.41;100.00
31005;BME280;17676;52.254;4.490;2023-09-19T06:31:21;99919.03;;;17.35;100.00
31005;BME280;17676;52.254;4.490;2023-09-19T06:33:48;99914.09;;;17.37;100.00
31005;BME280;17676;52.254;4.490;2023-09-19T06:36:14;99896.91;;;17.32;100.00
31005;BME280;17676;52.254;4.490;2023-09-19T06:38:40;99899.66;;;17.42;100.00
31005;BME280;17676;52.254;4.490;2023-09-19T06:41:06;99887.06;;;17.41;100.00
31005;BME280;17676;52.254;4.490;2023-09-19T06:43:35;99892.78;;;17.34;100.00
31005;BME280;17676;52.254;4.490;2023-09-19T06:46:01;99892.22;;;17.32;100.00
31005;BME280;17676;52.254;4.490;2023-09-19T06:48:27;99872.78;;;17.39;100.00
31005;BME280;17676;52.254;4.490;2023-09-19T06:50:57;99864.06;;;17.47;100.00
31005;BME280;17676;52.254;4.490;2023-09-19T06:53:23;99830.44;;;17.46;100.00
31005;BME280;17676;52.254;4.490;2023-09-19T06:55:50;99817.56;;;17.42;100.00
31005;BME280;17676;52.254;4.490;2023-09-19T06:58:16;99840.53;;;17.51;100.00
31005;BME280;17676;52.254;4.490;2023-09-19T07:00:42;99825.22;;;17.50;100.00
31005;BME280;17676;52.254;4.490;2023-09-19T07:03:08;99826.84;;;17.51;100.00
31005;BME280;17676;52.254;4.490;2023-09-19T07:05:37;99816.97;;;17.55;100.00
31005;BME280;17676;52.254;4.490;2023-09-19T07:08:04;99828.41;;;17.77;100.00
31005;BME280;17676;52.254;4.490;2023-09-19T07:10:31;99808.13;;;17.78;100.00
31005;BME280;17676;52.254;4.490;2023-09-19T07:12:58;99809.78;;;17.84;100.00
31005;BME280;17676;52.254;4.490;2023-09-19T07:15:25;99823.69;;;17.92;100.00
31005;BME280;17676;52.254;4.490;2023-09-19T07:17:52;99817.13;;;17.88;100.00
31005;BME280;17676;52.254;4.490;2023-09-19T07:20:19;99816.31;;;17.88;100.00
31005;BME280;17676;52.254;4.490;2023-09-19T07:22:44;99803.72;;;17.87;100.00
31005;BME280;17676;52.254;4.490;2023-09-19T07:25:10;99832.19;;;17.86;100.00
31005;BME280;17676;52.254;4.490;2023-09-19T07:27:35;99846.72;;;17.86;100.00
31005;BME280;17676;52.254;4.490;2023-09-19T07:30:01;99861.53;;;17.65;100.00
31005;BME280;17676;52.254;4.490;2023-09-19T07:32:26;99877.13;;;17.80;100.00
31005;BME280;17676;52.254;4.490;2023-09-19T07:34:52;99880.38;;;17.87;100.00
31005;BME280;17676;52.254;4.490;2023-09-19T07:37:18;99869.38;;;17.97;100.00
31005;BME280;17676;52.254;4.490;2023-09-19T07:39:43;99902.25;;;17.97;100.00
31005;BME280;17676;52.254;4.490;2023-09-19T07:42:10;99945.50;;;17.95;100.00
31005;BME280;17676;52.254;4.490;2023-09-19T07:44:36;99964.97;;;17.98;100.00
31005;BME280;17676;52.254;4.490;2023-09-19T07:47:02;99961.13;;;17.89;100.00
31005;BME280;17676;52.254;4.490;2023-09-19T07:49:28;99972.28;;;18.08;100.00
31005;BME280;17676;52.254;4.490;2023-09-19T07:51:54;99971.16;;;18.19;100.00
31005;BME280;17676;52.254;4.490;2023-09-19T07:54:20;99980.47;;;18.38;100.00
31005;BME280;17676;52.254;4.490;2023-09-19T07:56:46;99984.31;;;18.22;100.00
31005;BME280;17676;52.254;4.490;2023-09-19T07:59:11;99977.22;;;18.21;100.00
31005;BME280;17676;52.254;4.490;2023-09-19T08:01:38;99980.50;;;18.18;100.00
31005;BME280;17676;52.254;4.490;2023-09-19T08:04:05;99965.13;;;18.37;100.00
31005;BME280;17676;52.254;4.490;2023-09-19T08:06:30;99961.75;;;18.55;100.00
31005;BME280;17676;52.254;4.490;2023-09-19T08:08:56;99928.22;;;18.73;100.00
31005;BME280;17676;52.254;4.490;2023-09-19T08:11:22;99932.81;;;18.77;100.00
31005;BME280;17676;52.254;4.490;2023-09-19T08:13:49;99904.00;;;18.85;100.00
31005;BME280;17676;52.254;4.490;2023-09-19T08:16:15;99908.31;;;18.91;100.00
31005;BME280;17676;52.254;4.490;2023-09-19T08:18:46;99894.56;;;19.01;100.00
31005;BME280;17676;52.254;4.490;2023-09-19T08:21:12;99889.00;;;18.72;100.00
31005;BME280;17676;52.254;4.490;2023-09-19T08:23:38;99869.78;;;18.34;100.00
31005;BME280;17676;52.254;4.490;2023-09-19T08:26:04;99905.91;;;18.36;100.00
31005;BME280;17676;52.254;4.490;2023-09-19T08:28:32;99861.91;;;18.66;100.00
31005;BME280;17676;52.254;4.490;2023-09-19T08:31:05;99844.00;;;19.07;100.00
31005;BME280;17676;52.254;4.490;2023-09-19T08:33:32;99854.28;;;19.25;100.00
31005;BME280;17676;52.254;4.490;2023-09-19T08:35:58;99861.38;;;18.97;100.00
31005;BME280;17676;52.254;4.490;2023-09-19T08:38:24;99866.75;;;18.79;100.00
31005;BME280;17676;52.254;4.490;2023-09-19T08:40:54;99859.78;;;18.58;100.00
31005;BME280;17676;52.254;4.490;2023-09-19T08:43:21;99856.00;;;18.49;100.00
31005;BME280;17676;52.254;4.490;2023-09-19T08:45:47;99835.81;;;18.30;100.00
31005;BME280;17676;52.254;4.490;2023-09-19T08:48:28;99845.75;;;18.64;100.00
31005;BME280;17676;52.254;4.490;2023-09-19T08:51:03;99831.94;;;18.79;100.00
31005;BME280;17676;52.254;4.490;2023-09-19T08:53:42;99831.19;;;18.69;100.00
31005;BME280;17676;52.254;4.490;2023-09-19T08:56:17;99849.47;;;18.78;100.00
31005;BME280;17676;52.254;4.490;2023-09-19T08:58:53;99845.69;;;18.26;100.00
31005;BME280;17676;52.254;4.490;2023-09-19T09:01:20;99849.25;;;18.21;100.00
31005;BME280;17676;52.254;4.490;2023-09-19T09:03:56;99890.72;;;18.05;100.00
31005;BME280;17676;52.254;4.490;2023-09-19T09:06:23;99929.03;;;18.10;100.00
31005;BME280;17676;52.254;4.490;2023-09-19T09:08:52;99920.00;;;18.14;100.00
31005;BME280;17676;52.254;4.490;2023-09-19T09:11:19;99929.50;;;18.37;100.00
31005;BME280;17676;52.254;4.490;2023-09-19T09:13:45;99948.06;;;18.93;100.00
31005;BME280;17676;52.254;4.490;2023-09-19T09:16:11;99947.28;;;18.88;100.00
31005;BME280;17676;52.254;4.490;2023-09-19T09:18:38;99939.72;;;18.70;100.00
31005;BME280;17676;52.254;4.490;2023-09-19T09:21:03;99947.81;;;18.46;100.00
31005;BME280;17676;52.254;4.490;2023-09-19T09:23:32;99947.56;;;18.28;100.00
31005;BME280;17676;52.254;4.490;2023-09-19T09:25:58;99956.28;;;18.50;100.00
31005;BME280;17676;52.254;4.490;2023-09-19T09:28:29;99949.50;;;18.86;100.00
31005;BME280;17676;52.254;4.490;2023-09-19T09:30:56;99943.38;;;18.55;100.00
31005;BME280;17676;52.254;4.490;2023-09-19T09:33:23;99924.81;;;18.37;100.00
31005;BME280;17676;52.254;4.490;2023-09-19T09:38:21;99926.69;;;18.47;100.00
31005;BME280;17676;52.254;4.490;2023-09-19T09:40:52;99924.50;;;18.44;100.00
31005;BME280;17676;52.254;4.490;2023-09-19T09:43:28;99909.13;;;18.53;100.00
31005;BME280;17676;52.254;4.490;2023-09-19T09:46:14;99917.63;;;18.95;100.00
31005;BME280;17676;52.254;4.490;2023-09-19T09:51:39;99881.63;;;19.01;100.00
31005;BME280;17676;52.254;4.490;2023-09-19T09:54:14;99865.84;;;18.88;100.00
31005;BME280;17676;52.254;4.490;2023-09-19T09:56:56;99871.81;;;18.95;100.00
31005;BME280;17676;52.254;4.490;2023-09-19T09:59:45;99868.81;;;18.97;100.00
31005;BME280;17676;52.254;4.490;2023-09-19T10:02:28;99857.84;;;18.97;100.00
31005;BME280;17676;52.254;4.490;2023-09-19T10:04:56;99847.81;;;19.11;100.00
31005;BME280;17676;52.254;4.490;2023-09-19T10:07:47;99835.22;;;19.10;100.00
31005;BME280;17676;52.254;4.490;2023-09-19T10:13:13;99827.50;;;19.12;100.00
31005;BME280;17676;52.254;4.490;2023-09-19T10:15:42;99821.22;;;19.11;100.00
31005;BME280;17676;52.254;4.490;2023-09-19T10:18:14;99829.25;;;19.03;100.00
31005;BME280;17676;52.254;4.490;2023-09-19T10:20:44;99817.16;;;19.04;100.00
31005;BME280;17676;52.254;4.490;2023-09-19T10:23:11;99816.81;;;18.82;100.00
31005;BME280;17676;52.254;4.490;2023-09-19T10:25:44;99821.75;;;18.85;100.00
31005;BME280;17676;52.254;4.490;2023-09-19T10:28:13;99815.19;;;18.81;100.00
31005;BME280;17676;52.254;4.490;2023-09-19T10:30:46;99823.81;;;18.64;100.00
31005;BME280;17676;52.254;4.490;2023-09-19T10:33:15;99818.44;;;18.49;100.00
31005;BME280;17676;52.254;4.490;2023-09-19T10:35:46;99825.25;;;18.52;100.00
31005;BME280;17676;52.254;4.490;2023-09-19T10:38:17;99831.78;;;18.61;100.00
31005;BME280;17676;52.254;4.490;2023-09-19T10:40:44;99791.19;;;18.63;100.00
31005;BME280;17676;52.254;4.490;2023-09-19T10:43:16;99787.34;;;18.64;100.00
31005;BME280;17676;52.254;4.490;2023-09-19T10:45:47;99812.69;;;18.84;100.00
31005;BME280;17676;52.254;4.490;2023-09-19T10:48:15;99793.81;;;18.78;100.00
31005;BME280;17676;52.254;4.490;2023-09-19T10:53:25;99802.66;;;18.70;100.00
31005;BME280;17676;52.254;4.490;2023-09-19T10:55:56;99777.09;;;18.74;100.00
31005;BME280;17676;52.254;4.490;2023-09-19T10:58:29;99780.34;;;19.10;100.00
31005;BME280;17676;52.254;4.490;2023-09-19T11:00:58;99762.66;;;19.26;100.00
31005;BME280;17676;52.254;4.490;2023-09-19T11:03:35;99739.00;;;19.30;100.00
31005;BME280;17676;52.254;4.490;2023-09-19T11:11:52;99734.84;;;19.09;100.00
31005;BME280;17676;52.254;4.490;2023-09-19T11:30:43;99845.53;;;18.89;100.00
31005;BME280;17676;52.254;4.490;2023-09-19T11:33:28;99858.75;;;18.82;100.00
31005;BME280;17676;52.254;4.490;2023-09-19T11:41:36;99889.56;;;18.69;100.00
31005;BME280;17676;52.254;4.490;2023-09-19T11:46:29;99863.66;;;18.47;100.00
31005;BME280;17676;52.254;4.490;2023-09-19T11:49:05;99790.56;;;18.42;100.00
31005;BME280;17676;52.254;4.490;2023-09-19T11:51:42;99828.69;;;18.29;100.00
31005;BME280;17676;52.254;4.490;2023-09-19T11:54:12;99829.75;;;18.33;100.00
31005;BME280;17676;52.254;4.490;2023-09-19T11:56:43;99803.97;;;18.39;100.00
31005;BME280;17676;52.254;4.490;2023-09-19T11:59:10;99818.53;;;18.39;100.00
31005;BME280;17676;52.254;4.490;2023-09-19T12:01:37;99789.50;;;18.38;100.00
31005;BME280;17676;52.254;4.490;2023-09-19T12:04:08;99773.91;;;18.24;100.00
31005;BME280;17676;52.254;4.490;2023-09-19T12:06:36;99759.03;;;18.40;100.00
31005;BME280;17676;52.254;4.490;2023-09-19T12:09:04;99820.84;;;18.56;100.00
31005;BME280;17676;52.254;4.490;2023-09-19T12:11:41;99817.03;;;18.57;100.00
31005;BME280;17676;52.254;4.490;2023-09-19T12:14:09;99860.31;;;18.55;100.00
31005;BME280;17676;52.254;4.490;2023-09-19T12:16:35;99875.66;;;18.56;100.00
31005;BME280;17676;52.254;4.490;2023-09-19T12:19:22;99859.78;;;18.58;100.00
31005;BME280;17676;52.254;4.490;2023-09-19T12:22:00;99876.78;;;18.55;100.00
31005;BME280;17676;52.254;4.490;2023-09-19T12:24:34;99845.50;;;18.56;100.00
31005;BME280;17676;52.254;4.490;2023-09-19T12:27:05;99882.22;;;18.65;100.00
31005;BME280;17676;52.254;4.490;2023-09-19T12:29:32;99889.59;;;19.03;100.00
31005;BME280;17676;52.254;4.490;2023-09-19T12:32:00;99869.94;;;19.25;100.00
31005;BME280;17676;52.254;4.490;2023-09-19T12:34:31;99830.41;;;19.54;100.00
31005;BME280;17676;52.254;4.490;2023-09-19T12:39:45;99814.50;;;19.98;100.00
31005;BME280;17676;52.254;4.490;2023-09-19T12:42:22;99791.94;;;19.78;100.00
31005;BME280;17676;52.254;4.490;2023-09-19T12:44:50;99777.72;;;19.52;100.00
31005;BME280;17676;52.254;4.490;2023-09-19T12:47:22;99781.44;;;19.38;100.00
31005;BME280;17676;52.254;4.490;2023-09-19T12:50:08;99761.53;;;19.27;100.00
31005;BME280;17676;52.254;4.490;2023-09-19T12:52:43;99785.41;;;19.27;100.00
31005;BME280;17676;52.254;4.490;2023-09-19T12:55:25;99777.78;;;19.47;100.00
31005;BME280;17676;52.254;4.490;2023-09-19T12:58:12;99781.94;;;19.45;100.00
31005;BME280;17676;52.254;4.490;2023-09-19T13:00:41;99767.72;;;19.38;100.00
31005;BME280;17676;52.254;4.490;2023-09-19T13:08:27;99761.25;;;19.52;100.00
31005;BME280;17676;52.254;4.490;2023-09-19T13:13:36;99751.66;;;19.50;100.00
31005;BME280;17676;52.254;4.490;2023-09-19T13:16:02;99751.16;;;19.24;100.00
31005;BME280;17676;52.254;4.490;2023-09-19T13:18:41;99738.00;;;19.21;100.00
31005;BME280;17676;52.254;4.490;2023-09-19T13:21:09;99755.94;;;19.08;100.00
31005;BME280;17676;52.254;4.490;2023-09-19T13:23:42;99746.25;;;19.16;100.00
31005;BME280;17676;52.254;4.490;2023-09-19T13:26:09;99752.75;;;19.30;100.00
31005;BME280;17676;52.254;4.490;2023-09-19T13:28:34;99737.94;;;19.50;100.00
31005;BME280;17676;52.254;4.490;2023-09-19T13:31:00;99725.16;;;19.40;100.00
31005;BME280;17676;52.254;4.490;2023-09-19T13:33:26;99714.03;;;19.32;100.00
31005;BME280;17676;52.254;4.490;2023-09-19T13:35:51;99729.72;;;19.26;100.00
31005;BME280;17676;52.254;4.490;2023-09-19T13:38:18;99751.53;;;19.12;100.00
31005;BME280;17676;52.254;4.490;2023-09-19T13:40:47;99758.03;;;18.93;100.00
31005;BME280;17676;52.254;4.490;2023-09-19T13:43:13;99737.88;;;18.79;100.00
31005;BME280;17676;52.254;4.490;2023-09-19T13:45:38;99807.81;;;18.76;100.00
31005;BME280;17676;52.254;4.490;2023-09-19T13:48:07;99809.38;;;18.87;100.00
31005;BME280;17676;52.254;4.490;2023-09-19T13:50:34;99807.41;;;18.93;100.00
31005;BME280;17676;52.254;4.490;2023-09-19T13:53:01;99815.81;;;19.01;100.00